createdAt,value
2022-10-01T00:04:59.275Z,11.80
2022-10-01T00:10:06.174Z,6.46
2022-10-01T00:15:13.750Z,5.50
2022-10-01T00:20:20.279Z,5.38
2022-10-01T00:25:27.325Z,5.55
2022-10-01T00:30:38.393Z,6.08
2022-10-01T00:35:40.756Z,6.12
2022-10-01T00:40:47.675Z,5.17
2022-10-01T00:45:54.695Z,5.47
2022-10-01T00:51:01.585Z,6.21
2022-10-01T00:56:08.629Z,7.13
2022-10-01T01:01:15.547Z,6.17
2022-10-01T01:06:22.560Z,4.02
2022-10-01T01:11:29.600Z,5.06
2022-10-01T01:16:36.537Z,4.40
2022-10-01T01:21:43.573Z,4.83
2022-10-01T01:26:50.596Z,4.67
2022-10-01T01:31:57.461Z,4.77
2022-10-01T01:37:04.544Z,6.67
2022-10-01T01:42:11.467Z,5.89
2022-10-01T01:47:18.523Z,6.23
2022-10-01T01:52:25.444Z,6.20
2022-10-01T01:57:32.562Z,6.47
2022-10-01T02:02:39.625Z,7.56
2022-10-01T02:07:46.648Z,6.81
2022-10-01T02:12:53.599Z,6.12
2022-10-01T02:18:00.675Z,6.96
2022-10-01T02:23:07.626Z,8.55
2022-10-01T02:28:14.688Z,6.14
2022-10-01T02:33:22.634Z,6.83
2022-10-01T02:38:28.622Z,6.25
2022-10-01T02:43:38.356Z,5.91
2022-10-01T02:48:42.014Z,7.01
2022-10-01T02:53:48.898Z,5.39
2022-10-01T02:58:55.972Z,6.90
2022-10-01T03:04:02.875Z,6.38
2022-10-01T03:09:10.034Z,8.06
2022-10-01T03:14:16.961Z,6.32
2022-10-01T03:19:25.111Z,8.22
2022-10-01T03:24:32.007Z,6.68
2022-10-01T03:29:39.020Z,5.68
2022-10-01T03:34:45.906Z,6.50
2022-10-01T03:39:53.038Z,7.55
2022-10-01T03:44:59.919Z,8.29
2022-10-01T03:50:06.982Z,7.54
2022-10-01T03:55:13.905Z,6.97
2022-10-01T04:00:20.843Z,9.68
2022-10-01T04:05:27.771Z,12.02
2022-10-01T04:10:34.685Z,10.63
2022-10-01T04:15:41.764Z,10.78
2022-10-01T04:20:48.644Z,11.65
2022-10-01T04:25:55.711Z,12.55
2022-10-01T04:31:02.638Z,18.33
2022-10-01T04:36:09.719Z,13.25
2022-10-01T04:41:16.600Z,14.20
2022-10-01T04:46:23.805Z,16.79
2022-10-01T04:51:30.679Z,17.35
2022-10-01T04:56:37.585Z,18.31
2022-10-01T05:01:44.771Z,18.85
2022-10-01T05:06:51.551Z,20.54
2022-10-01T05:11:58.490Z,18.62
2022-10-01T05:17:05.424Z,17.92
2022-10-01T05:22:12.336Z,20.63
2022-10-01T05:27:19.264Z,19.50
2022-10-01T05:32:26.344Z,30.31
2022-10-01T05:37:33.323Z,24.52
2022-10-01T05:42:40.424Z,27.19
2022-10-01T05:47:47.334Z,25.08
2022-10-01T05:52:54.466Z,23.63
2022-10-01T05:58:01.342Z,27.18
2022-10-01T06:03:08.513Z,30.21
2022-10-01T06:08:15.292Z,26.43
2022-10-01T06:13:22.317Z,28.16
2022-10-01T06:18:29.259Z,29.64
2022-10-01T06:23:36.421Z,34.56
2022-10-01T06:28:43.368Z,29.81
2022-10-01T06:33:50.440Z,29.68
2022-10-01T06:38:57.345Z,28.43
2022-10-01T06:44:04.583Z,30.04
2022-10-01T06:49:11.655Z,32.27
2022-10-01T06:54:18.550Z,33.88
2022-10-01T06:59:25.663Z,28.71
2022-10-01T07:04:32.628Z,30.87
2022-10-01T07:09:39.579Z,29.01
2022-10-01T07:14:46.588Z,29.21
2022-10-01T07:19:53.566Z,31.27
2022-10-01T07:25:00.660Z,28.88
2022-10-01T07:30:07.530Z,26.83
2022-10-01T07:35:14.629Z,31.94
2022-10-01T07:40:21.538Z,30.37
2022-10-01T07:45:28.605Z,34.20
2022-10-01T07:50:35.483Z,28.94
2022-10-01T07:55:42.465Z,26.91
2022-10-01T08:00:49.462Z,33.96
2022-10-01T08:05:56.372Z,33.03
2022-10-01T08:11:03.279Z,33.32
2022-10-01T08:16:10.385Z,27.41
2022-10-01T08:21:17.304Z,27.54
2022-10-01T08:26:24.387Z,27.84
2022-10-01T08:31:31.523Z,34.21
2022-10-01T08:36:37.901Z,27.35
2022-10-01T08:41:44.771Z,26.13
2022-10-01T08:46:51.876Z,27.26
2022-10-01T08:51:58.739Z,31.78
2022-10-01T08:57:05.786Z,35.86
2022-10-01T09:02:12.684Z,25.47
2022-10-01T09:07:19.649Z,24.26
2022-10-01T09:12:26.574Z,21.04
2022-10-01T09:17:33.537Z,26.85
2022-10-01T09:22:40.528Z,28.69
2022-10-01T09:27:47.475Z,24.75
2022-10-01T09:32:54.354Z,20.52
2022-10-01T09:38:01.293Z,19.52
2022-10-01T09:43:08.254Z,19.03
2022-10-01T09:48:15.319Z,19.88
2022-10-01T09:53:22.280Z,20.22
2022-10-01T09:58:29.309Z,22.20
2022-10-01T10:03:36.296Z,19.56
2022-10-01T10:08:43.223Z,19.70
2022-10-01T10:13:50.146Z,25.16
2022-10-01T10:18:57.263Z,19.16
2022-10-01T10:24:04.200Z,20.46
2022-10-01T10:29:11.197Z,24.29
2022-10-01T10:34:18.160Z,20.03
2022-10-01T10:39:25.073Z,23.29
2022-10-01T10:44:32.319Z,25.04
2022-10-01T10:49:39.278Z,23.56
2022-10-01T10:54:46.223Z,21.31
2022-10-01T10:59:53.202Z,19.44
2022-10-01T11:05:00.263Z,19.94
2022-10-01T11:10:07.147Z,19.20
2022-10-01T11:15:14.097Z,17.85
2022-10-01T11:20:21.356Z,16.95
2022-10-01T11:25:27.980Z,16.31
2022-10-01T11:30:34.910Z,15.21
2022-10-01T11:35:41.993Z,14.62
2022-10-01T11:40:48.882Z,15.09
2022-10-01T11:45:55.927Z,17.40
2022-10-01T11:51:02.756Z,15.10
2022-10-01T11:56:09.819Z,12.94
2022-10-01T12:01:16.740Z,13.32
2022-10-01T12:06:26.812Z,14.77
2022-10-01T12:11:30.285Z,14.45
2022-10-01T12:16:37.617Z,14.84
2022-10-01T12:21:43.669Z,10.50
2022-10-01T12:26:50.649Z,13.28
2022-10-01T12:31:57.585Z,14.59
2022-10-01T12:37:04.675Z,14.26
2022-10-01T12:42:11.570Z,13.44
2022-10-01T12:47:18.574Z,12.58
2022-10-01T12:52:25.487Z,11.49
2022-10-01T12:57:32.580Z,10.61
2022-10-01T13:02:39.476Z,10.83
2022-10-01T13:07:46.587Z,10.86
2022-10-01T13:12:53.542Z,13.79
2022-10-01T13:18:00.489Z,10.14
2022-10-01T13:23:07.502Z,10.95
2022-10-01T13:28:14.489Z,11.02
2022-10-01T13:33:21.528Z,11.33
2022-10-01T13:38:28.474Z,14.64
2022-10-01T13:43:35.450Z,13.68
2022-10-01T13:48:42.396Z,11.54
2022-10-01T13:53:49.404Z,11.71
2022-10-01T13:58:56.356Z,11.43
2022-10-01T14:04:03.415Z,16.65
2022-10-01T14:09:10.337Z,10.15
2022-10-01T14:14:17.276Z,10.94
2022-10-01T14:19:24.261Z,13.08
2022-10-01T14:24:31.387Z,11.87
2022-10-01T14:29:38.333Z,11.40
2022-10-01T14:34:45.254Z,13.11
2022-10-01T14:39:52.162Z,12.49
2022-10-01T14:44:59.308Z,11.12
2022-10-01T14:50:06.222Z,11.33
2022-10-01T14:55:13.207Z,10.72
2022-10-01T15:00:20.156Z,11.49
2022-10-01T15:05:27.288Z,11.91
2022-10-01T15:10:34.207Z,10.67
2022-10-01T15:15:41.140Z,10.41
2022-10-01T15:20:48.277Z,13.71
2022-10-01T15:25:55.266Z,13.66
2022-10-01T15:31:02.295Z,11.95
2022-10-01T15:36:09.239Z,12.03
2022-10-01T15:41:31.019Z,11.31
2022-10-01T15:46:22.787Z,44.31
2022-10-01T15:51:29.823Z,16.67
2022-10-01T15:56:36.767Z,15.44
2022-10-01T16:01:43.624Z,15.76
2022-10-01T16:06:50.547Z,16.98
2022-10-01T16:11:57.654Z,10.75
2022-10-01T16:17:04.709Z,7.25
2022-10-01T16:22:11.672Z,6.14
2022-10-01T16:27:18.721Z,13.86
2022-10-01T16:32:25.903Z,11.89
2022-10-01T16:37:32.951Z,7.20
2022-10-01T16:42:39.880Z,6.92
2022-10-01T16:47:46.879Z,7.28
2022-10-01T16:52:53.793Z,4.94
2022-10-01T16:58:00.740Z,6.22
2022-10-01T17:03:07.719Z,6.17
2022-10-01T17:08:14.674Z,5.44
2022-10-01T17:13:21.626Z,6.09
2022-10-01T17:18:28.741Z,5.88
2022-10-01T17:23:35.645Z,6.53
2022-10-01T17:28:42.691Z,8.79
2022-10-01T17:33:49.619Z,7.20
2022-10-01T17:38:56.788Z,8.59
2022-10-01T17:44:03.730Z,10.23
2022-10-01T17:49:19.011Z,6.70
2022-10-01T17:54:29.913Z,10.54
2022-10-01T17:59:16.954Z,15.60
2022-10-01T18:04:23.911Z,10.54
2022-10-01T18:09:30.973Z,8.02
2022-10-01T18:14:37.918Z,6.25
2022-10-01T18:19:53.660Z,29.83
2022-10-01T18:24:51.501Z,29.71
2022-10-01T18:29:58.410Z,14.77
2022-10-01T18:35:05.523Z,19.75
2022-10-01T18:40:12.464Z,32.86
2022-10-01T18:45:19.555Z,23.23
2022-10-01T18:50:26.330Z,15.59
2022-10-01T18:55:33.438Z,20.25
2022-10-01T19:00:40.384Z,25.75
2022-10-01T19:05:47.417Z,38.92
2022-10-01T19:10:54.442Z,33.99
2022-10-01T19:16:01.460Z,16.39
2022-10-01T19:21:08.727Z,16.66
2022-10-01T19:26:15.812Z,15.35
2022-10-01T19:31:22.887Z,55.82
2022-10-01T19:36:34.212Z,15.22
2022-10-01T19:41:36.366Z,73.84
2022-10-01T19:46:43.375Z,14.20
2022-10-01T19:51:50.259Z,4.25
2022-10-01T19:56:57.236Z,5.20
2022-10-01T20:02:04.230Z,4.35
2022-10-01T20:07:11.325Z,4.45
2022-10-01T20:12:18.235Z,6.09
2022-10-01T20:17:25.249Z,3.22
2022-10-01T20:22:32.178Z,4.73
2022-10-01T20:27:39.137Z,4.49
2022-10-01T20:32:46.234Z,5.66
2022-10-01T20:37:53.191Z,4.63
2022-10-01T20:43:00.353Z,4.28
2022-10-01T20:48:07.248Z,4.87
2022-10-01T20:53:14.212Z,3.55
2022-10-01T20:58:21.127Z,3.67
2022-10-01T21:03:28.242Z,5.65
2022-10-01T21:08:35.152Z,4.88
2022-10-01T21:13:42.116Z,4.64
2022-10-01T21:18:49.029Z,4.44
2022-10-01T21:23:56.043Z,6.38
2022-10-01T21:29:02.971Z,4.27
2022-10-01T21:34:10.112Z,4.09
2022-10-01T21:39:17.048Z,6.79
2022-10-01T21:44:24.109Z,4.19
2022-10-01T21:49:31.083Z,5.37
2022-10-01T21:54:38.087Z,5.38
2022-10-01T21:59:45.018Z,4.57
2022-10-01T22:04:52.100Z,4.43
2022-10-01T22:09:59.001Z,5.37
2022-10-01T22:15:05.972Z,4.08
2022-10-01T22:20:12.931Z,4.64
2022-10-01T22:25:20.010Z,4.20
2022-10-01T22:30:26.944Z,5.17
2022-10-01T22:35:34.010Z,5.66
2022-10-01T22:40:40.934Z,4.56
2022-10-01T22:45:48.016Z,3.63
2022-10-01T22:50:54.939Z,3.73
2022-10-01T22:56:02.040Z,3.98
2022-10-01T23:01:08.948Z,5.20
2022-10-01T23:06:15.895Z,3.41
2022-10-01T23:11:22.805Z,3.98
2022-10-01T23:16:29.947Z,4.57
2022-10-01T23:21:36.776Z,5.09
2022-10-01T23:26:43.836Z,5.16
2022-10-01T23:31:50.777Z,4.35
2022-10-01T23:36:57.745Z,4.51
2022-10-01T23:42:04.700Z,3.18
2022-10-01T23:47:11.668Z,4.05
2022-10-01T23:52:18.754Z,4.95
2022-10-01T23:57:25.642Z,4.14
